Time;durP1;ratioP1;P1;durP2;ratioP2;P2;SDS_P1;SDS_P2;PMS_P1;PMS_P2;Temp;Humidity;BMP_temperature;BMP_pressure;BME280_temperature;BME280_humidity;BME280_pressure;Samples;Min_cycle;Max_cycle;Signal;HPM_P1;HPM_P2
2023/05/02 00:00:41;;;;;;;3.55;1.70;;;14.10;99.90;;;;;;4955392;28;20066;-74
2023/05/02 00:03:07;;;;;;;4.93;1.42;;;14.10;99.90;;;;;;4963758;28;20034;-74
2023/05/02 00:05:33;;;;;;;2.22;1.13;;;14.10;99.90;;;;;;4970085;28;20031;-74
2023/05/02 00:07:59;;;;;;;2.30;1.30;;;14.00;99.90;;;;;;4950027;28;20032;-74
2023/05/02 00:10:25;;;;;;;1.83;1.30;;;14.00;99.90;;;;;;4955283;28;20058;-74
2023/05/02 00:12:51;;;;;;;3.67;1.63;;;14.00;99.90;;;;;;4948436;29;20039;-73
2023/05/02 00:15:17;;;;;;;3.13;1.52;;;13.90;99.90;;;;;;4955194;28;20443;-74
2023/05/02 00:17:42;;;;;;;1.50;1.15;;;13.90;99.90;;;;;;4949011;28;20522;-74
2023/05/02 00:20:10;;;;;;;0.98;0.75;;;13.80;99.90;;;;;;4955103;28;20035;-73
2023/05/02 00:22:37;;;;;;;1.92;1.33;;;13.70;99.90;;;;;;4963543;28;20039;-74
2023/05/02 00:25:04;;;;;;;2.42;1.27;;;13.60;99.90;;;;;;4953285;28;20066;-74
2023/05/02 00:27:30;;;;;;;2.45;1.30;;;13.60;99.90;;;;;;4948687;28;20032;-73
2023/05/02 00:29:58;;;;;;;2.17;1.20;;;13.60;99.90;;;;;;4953518;29;20042;-74
2023/05/02 00:32:24;;;;;;;1.67;0.90;;;13.50;99.90;;;;;;4963193;28;20085;-74
2023/05/02 00:34:50;;;;;;;2.20;1.35;;;13.40;99.90;;;;;;4954572;29;20490;-74
2023/05/02 00:37:15;;;;;;;2.30;1.55;;;13.30;99.90;;;;;;4963538;28;20508;-73
2023/05/02 00:39:41;;;;;;;4.47;1.33;;;13.20;99.90;;;;;;4953393;29;20071;-74
2023/05/02 00:42:07;;;;;;;2.33;1.58;;;13.10;99.90;;;;;;4947627;29;20042;-73
2023/05/02 00:44:32;;;;;;;2.03;1.35;;;13.10;99.90;;;;;;4969049;28;20035;-73
2023/05/02 00:47:00;;;;;;;4.65;1.67;;;13.10;99.90;;;;;;4948525;28;20035;-74
2023/05/02 00:49:27;;;;;;;3.20;1.40;;;12.90;99.90;;;;;;4969372;28;20255;-74
2023/05/02 00:51:54;;;;;;;2.20;1.35;;;12.90;99.90;;;;;;4948358;28;20366;-73
2023/05/02 00:54:19;;;;;;;3.00;1.48;;;12.80;99.90;;;;;;4968866;28;20534;-74
2023/05/02 00:56:46;;;;;;;3.95;1.35;;;12.70;99.90;;;;;;4947198;28;20163;-73
2023/05/02 00:59:12;;;;;;;3.60;1.95;;;12.60;99.90;;;;;;4954453;28;20027;-74
2023/05/02 01:02:24;;;;;;;3.78;2.08;;;12.60;99.90;;;;;;4949220;28;20098;-74
2023/05/02 01:04:58;;;;;;;3.10;1.48;;;12.60;99.90;;;;;;4938837;29;20027;-74
2023/05/02 01:07:36;;;;;;;3.30;1.98;;;12.60;99.90;;;;;;4942306;28;20382;-74
2023/05/02 01:10:29;;;;;;;3.83;1.95;;;12.50;99.90;;;;;;4930983;29;20039;-74
2023/05/02 01:13:12;;;;;;;7.70;2.35;;;12.50;99.90;;;;;;4933861;28;20067;-74
2023/05/02 01:15:40;;;;;;;3.67;1.98;;;12.50;99.90;;;;;;4945945;28;20023;-73
2023/05/02 01:18:11;;;;;;;5.03;2.22;;;12.40;99.90;;;;;;4941395;28;20475;-71
2023/05/02 01:20:41;;;;;;;5.20;2.33;;;12.40;99.90;;;;;;4963880;28;20040;-72
2023/05/02 01:23:30;;;;;;;3.83;1.70;;;12.30;99.90;;;;;;4931244;29;20027;-72
2023/05/02 01:26:32;;;;;;;4.28;2.33;;;12.30;99.90;;;;;;4952724;29;20222;-72
2023/05/02 01:29:04;;;;;;;2.83;1.77;;;12.30;99.90;;;;;;4949069;28;20039;-72
2023/05/02 01:31:38;;;;;;;3.90;1.73;;;12.30;99.90;;;;;;4950664;28;20031;-72
2023/05/02 01:34:11;;;;;;;3.83;2.20;;;12.30;99.90;;;;;;4966760;28;20703;-73
2023/05/02 01:36:46;;;;;;;4.80;2.40;;;12.30;99.90;;;;;;4963388;28;20042;-73
2023/05/02 01:39:21;;;;;;;4.55;2.45;;;12.30;99.90;;;;;;4953300;28;20396;-73
2023/05/02 01:41:54;;;;;;;6.30;2.30;;;12.30;99.90;;;;;;4953537;28;20028;-73
2023/05/02 01:44:23;;;;;;;4.25;2.40;;;12.30;99.90;;;;;;4967563;28;20526;-73
2023/05/02 01:46:51;;;;;;;3.05;2.42;;;12.30;99.90;;;;;;4946378;28;20028;-72
2023/05/02 01:49:19;;;;;;;5.45;2.20;;;12.20;99.90;;;;;;4968174;28;20023;-72
2023/05/02 01:51:49;;;;;;;4.20;2.13;;;12.10;99.90;;;;;;4948527;29;20028;-72
2023/05/02 01:54:19;;;;;;;4.37;2.10;;;12.10;99.90;;;;;;4967474;28;20138;-73
2023/05/02 01:56:46;;;;;;;4.38;2.50;;;12.10;99.90;;;;;;4946486;28;20039;-72
2023/05/02 01:59:18;;;;;;;3.35;2.42;;;12.00;99.90;;;;;;4953117;28;20055;-73
2023/05/02 02:01:45;;;;;;;3.22;1.85;;;12.00;99.90;;;;;;4945824;28;20040;-72
2023/05/02 02:04:14;;;;;;;4.95;2.65;;;11.90;99.90;;;;;;4967216;28;20058;-73
2023/05/02 02:06:47;;;;;;;5.10;2.40;;;11.90;99.90;;;;;;4946082;28;20036;-72
2023/05/02 02:09:13;;;;;;;5.28;2.50;;;11.90;99.90;;;;;;4960409;28;20403;-73
2023/05/02 02:12:12;;;;;;;4.90;2.25;;;11.90;99.90;;;;;;4946530;28;20454;-72
2023/05/02 02:14:41;;;;;;;3.28;2.20;;;11.90;99.90;;;;;;4941837;29;20272;-73
2023/05/02 02:17:28;;;;;;;3.88;2.53;;;11.90;99.90;;;;;;4934684;29;20055;-73
2023/05/02 02:20:00;;;;;;;3.42;2.30;;;11.80;99.90;;;;;;4967312;28;20039;-73
2023/05/02 02:22:27;;;;;;;;;;;11.80;99.90;;;;;;4961627;28;20554;-73
2023/05/02 02:24:54;;;;;;;4.50;2.55;;;11.80;99.90;;;;;;4967217;28;19997;-73
2023/05/02 02:27:20;;;;;;;4.28;2.35;;;11.80;99.90;;;;;;4971138;23;20055;-77
2023/05/02 02:29:45;;;;;;;4.50;1.85;;;11.70;99.90;;;;;;4972678;28;20035;-77
2023/05/02 02:32:11;;;;;;;4.45;2.28;;;11.70;99.90;;;;;;4982337;28;20097;-76
2023/05/02 02:34:37;;;;;;;5.13;2.42;;;11.70;99.90;;;;;;4998116;28;20073;-76
2023/05/02 02:37:31;;;;;;;3.58;2.00;;;11.60;99.90;;;;;;4985512;28;20132;-76
2023/05/02 02:40:20;;;;;;;3.70;2.20;;;11.50;99.90;;;;;;4979060;28;20100;-76
2023/05/02 02:43:20;;;;;;;5.28;2.40;;;11.40;99.90;;;;;;4975062;28;20043;-77
2023/05/02 02:46:14;;;;;;;3.88;1.73;;;11.40;99.90;;;;;;4991473;28;20042;-76
2023/05/02 02:48:51;;;;;;;3.58;2.25;;;11.40;99.90;;;;;;4973396;28;20040;-76
2023/05/02 02:51:38;;;;;;;3.75;2.30;;;11.40;99.90;;;;;;4978097;28;20058;-76
2023/05/02 02:54:38;;;;;;;5.20;2.75;;;11.30;99.90;;;;;;4974830;28;20026;-77
2023/05/02 02:57:23;;;;;;;3.47;2.15;;;11.30;99.90;;;;;;4984618;28;20041;-77
2023/05/02 03:00:20;;;;;;;5.18;3.13;;;11.30;99.90;;;;;;4986169;28;20030;-76
2023/05/02 03:02:47;;;;;;;4.40;2.30;;;11.20;99.90;;;;;;4975777;28;20035;-76
2023/05/02 03:05:14;;;;;;;4.13;2.15;;;11.10;99.90;;;;;;4981931;28;20051;-77
2023/05/02 03:07:40;;;;;;;3.88;2.58;;;11.00;99.90;;;;;;4978338;28;20101;-76
2023/05/02 03:10:06;;;;;;;4.13;2.55;;;11.00;99.90;;;;;;4990612;28;20038;-77
2023/05/02 03:12:32;;;;;;;3.70;2.42;;;11.00;99.90;;;;;;4966922;28;20040;-76
2023/05/02 03:15:39;;;;;;;5.03;2.47;;;10.90;99.90;;;;;;4984293;28;20047;-77
2023/05/02 03:18:05;;;;;;;5.72;3.42;;;10.90;99.90;;;;;;4972128;28;20043;-77
2023/05/02 03:20:31;;;;;;;5.03;2.80;;;10.90;99.90;;;;;;4978711;28;20030;-77
2023/05/02 03:22:57;;;;;;;4.32;2.85;;;10.90;99.90;;;;;;4978337;28;20047;-77
2023/05/02 03:25:22;;;;;;;5.43;2.20;;;10.80;99.90;;;;;;4994370;28;20397;-77
2023/05/02 03:27:48;;;;;;;6.45;2.92;;;10.80;99.90;;;;;;4977723;28;20042;-77
2023/05/02 03:30:14;;;;;;;5.03;2.63;;;10.70;99.90;;;;;;4994566;28;20154;-76
2023/05/02 03:32:39;;;;;;;6.32;2.83;;;10.70;99.90;;;;;;4978809;28;20039;-77
2023/05/02 03:35:06;;;;;;;3.25;2.03;;;10.60;99.90;;;;;;4993506;28;20030;-77
2023/05/02 03:37:34;;;;;;;7.10;2.85;;;10.60;99.90;;;;;;4975381;28;20035;-76
2023/05/02 03:39:59;;;;;;;6.47;3.15;;;10.50;99.90;;;;;;4984053;28;20042;-76
2023/05/02 03:42:25;;;;;;;4.55;3.03;;;10.50;99.90;;;;;;4982265;28;20367;-77
2023/05/02 03:44:52;;;;;;;3.78;2.47;;;10.30;99.90;;;;;;4989835;28;20034;-77
2023/05/02 03:47:18;;;;;;;5.05;2.97;;;10.30;99.90;;;;;;4983032;28;20171;-77
2023/05/02 03:49:44;;;;;;;4.15;2.70;;;10.20;99.90;;;;;;4978856;28;20058;-77
2023/05/02 03:52:10;;;;;;;5.40;2.60;;;10.20;99.90;;;;;;4978006;28;20028;-76
2023/05/02 03:54:35;;;;;;;5.28;2.42;;;10.20;99.90;;;;;;4984357;28;20113;-77
2023/05/02 03:57:03;;;;;;;6.05;2.90;;;10.10;99.90;;;;;;4973286;28;20066;-77
2023/05/02 03:59:33;;;;;;;8.02;2.80;;;9.90;99.90;;;;;;4958439;28;20035;-77
2023/05/02 04:01:58;;;;;;;4.95;2.47;;;9.80;99.90;;;;;;4988367;28;20725;-77
2023/05/02 04:04:24;;;;;;;7.18;3.03;;;9.80;99.90;;;;;;4981900;28;20029;-77
2023/05/02 04:06:50;;;;;;;10.18;4.00;;;9.80;99.90;;;;;;4991442;28;20050;-77
2023/05/02 04:09:17;;;;;;;4.75;3.05;;;9.70;99.90;;;;;;4980203;28;20506;-77
2023/05/02 04:11:43;;;;;;;8.05;3.05;;;9.60;99.90;;;;;;4980288;28;20113;-75
2023/05/02 04:14:09;;;;;;;9.88;3.83;;;9.60;99.90;;;;;;4977845;28;20097;-74
2023/05/02 04:16:35;;;;;;;8.18;2.90;;;9.60;99.90;;;;;;4990939;28;20034;-76
2023/05/02 04:19:00;;;;;;;5.32;2.88;;;9.50;99.90;;;;;;4977027;28;20038;-77
2023/05/02 04:21:26;;;;;;;5.38;2.92;;;9.50;99.90;;;;;;4991249;28;20531;-78
2023/05/02 04:23:52;;;;;;;5.68;2.55;;;9.60;99.90;;;;;;4985221;28;20038;-75
2023/05/02 04:26:18;;;;;;;14.15;4.22;;;9.70;99.90;;;;;;4995322;28;20162;-81
2023/05/02 04:28:43;;;;;;;10.98;3.88;;;9.80;99.90;;;;;;4977379;28;20125;-75
2023/05/02 04:31:10;;;;;;;17.95;4.32;;;9.70;99.90;;;;;;4992231;28;20500;-76
2023/05/02 04:33:35;;;;;;;7.07;4.07;;;9.80;99.90;;;;;;4963279;28;20112;-76
2023/05/02 04:36:01;;;;;;;8.00;3.90;;;9.90;99.90;;;;;;4996125;28;20034;-77
2023/05/02 04:38:27;;;;;;;11.60;4.00;;;10.00;99.90;;;;;;4976814;28;20041;-77
2023/05/02 04:40:53;;;;;;;9.43;4.85;;;10.00;99.90;;;;;;4993144;28;20068;-75
2023/05/02 04:43:19;;;;;;;8.23;4.55;;;10.20;99.90;;;;;;4976504;28;20381;-76
2023/05/02 04:45:45;;;;;;;9.73;4.85;;;10.40;99.90;;;;;;4992780;28;20022;-78
2023/05/02 04:48:11;;;;;;;8.00;4.75;;;10.40;99.90;;;;;;4969002;28;20046;-77
2023/05/02 04:50:37;;;;;;;8.30;4.68;;;10.50;99.90;;;;;;4997708;28;20033;-76
2023/05/02 04:53:03;;;;;;;12.27;5.40;;;10.60;99.90;;;;;;4977111;28;20034;-78
2023/05/02 04:55:29;;;;;;;8.15;4.70;;;10.70;99.90;;;;;;4993227;28;20027;-76
2023/05/02 04:57:55;;;;;;;11.63;5.45;;;10.70;99.90;;;;;;4992251;28;20190;-76
2023/05/02 05:00:20;;;;;;;8.73;5.07;;;10.80;99.90;;;;;;4993148;28;20032;-76
2023/05/02 05:02:46;;;;;;;9.02;5.07;;;10.80;99.90;;;;;;4977872;28;20478;-76
2023/05/02 05:05:12;;;;;;;8.45;5.05;;;11.00;99.90;;;;;;4993699;28;20061;-75
2023/05/02 05:07:38;;;;;;;9.73;5.55;;;10.90;99.90;;;;;;4978479;28;20126;-79
2023/05/02 05:10:05;;;;;;;10.50;5.30;;;11.00;99.90;;;;;;4990376;28;20095;-73
2023/05/02 05:12:30;;;;;;;10.00;4.57;;;11.10;99.90;;;;;;4965768;28;20035;-75
2023/05/02 05:14:56;;;;;;;10.32;4.93;;;11.10;99.90;;;;;;4987141;28;20031;-77
2023/05/02 05:17:22;;;;;;;12.70;5.15;;;11.20;99.90;;;;;;4996246;28;20043;-76
2023/05/02 05:19:48;;;;;;;10.90;5.05;;;11.20;99.90;;;;;;4985503;28;20054;-75
2023/05/02 05:22:14;;;;;;;10.93;5.40;;;11.20;99.90;;;;;;4983826;28;20020;-74
2023/05/02 05:24:40;;;;;;;10.10;5.22;;;11.10;99.90;;;;;;4983802;28;20054;-74
2023/05/02 05:27:05;;;;;;;10.55;4.97;;;11.20;99.90;;;;;;4985288;28;20066;-74
2023/05/02 05:29:31;;;;;;;11.10;4.78;;;11.30;99.90;;;;;;4982806;28;20070;-74
2023/05/02 05:31:58;;;;;;;13.05;5.68;;;11.60;99.90;;;;;;4987587;28;20033;-74
2023/05/02 05:34:24;;;;;;;10.80;5.80;;;11.70;99.90;;;;;;4980214;28;20037;-74
2023/05/02 05:36:50;;;;;;;10.55;6.00;;;11.80;99.90;;;;;;4990940;28;20022;-74
2023/05/02 05:39:16;;;;;;;12.55;5.97;;;11.90;99.90;;;;;;4967450;28;20462;-75
2023/05/02 05:41:42;;;;;;;12.02;6.38;;;12.00;99.90;;;;;;4990490;28;20050;-74
2023/05/02 05:44:08;;;;;;;21.63;9.27;;;12.00;99.90;;;;;;4977223;28;20030;-73
2023/05/02 05:46:33;;;;;;;11.45;6.43;;;12.00;99.90;;;;;;4991564;28;20394;-74
2023/05/02 05:49:00;;;;;;;13.25;6.82;;;12.00;99.90;;;;;;4975342;28;20668;-73
2023/05/02 05:51:27;;;;;;;21.20;6.60;;;12.10;99.90;;;;;;4989117;28;20478;-73
2023/05/02 05:53:53;;;;;;;14.73;7.05;;;12.30;99.90;;;;;;4975330;28;20053;-74
2023/05/02 05:56:18;;;;;;;12.90;6.22;;;12.30;99.90;;;;;;4991500;28;20109;-74
2023/05/02 05:58:44;;;;;;;17.40;7.55;;;12.40;99.90;;;;;;4978665;28;20113;-74
2023/05/02 06:01:10;;;;;;;15.48;7.72;;;12.40;99.90;;;;;;4981747;28;20484;-74
2023/05/02 06:03:36;;;;;;;14.73;7.03;;;12.50;99.90;;;;;;4971239;28;20038;-74
2023/05/02 06:06:02;;;;;;;13.93;7.88;;;12.40;99.90;;;;;;4971390;28;20055;-74
2023/05/02 06:08:28;;;;;;;17.92;7.30;;;12.30;99.90;;;;;;4969224;28;20045;-74
2023/05/02 06:10:53;;;;;;;18.73;8.57;;;12.30;99.90;;;;;;4985083;28;20027;-74
2023/05/02 06:13:19;;;;;;;15.93;7.25;;;12.40;99.90;;;;;;4968799;28;20510;-74
2023/05/02 06:15:45;;;;;;;16.45;7.10;;;12.60;99.90;;;;;;4991696;28;20406;-74
2023/05/02 06:18:11;;;;;;;17.77;7.55;;;12.70;99.90;;;;;;4974275;28;20034;-75
2023/05/02 06:20:36;;;;;;;18.27;7.95;;;12.80;99.90;;;;;;4989064;28;20030;-74
2023/05/02 06:23:02;;;;;;;15.60;7.47;;;12.90;99.90;;;;;;4959683;28;20148;-75
2023/05/02 06:25:28;;;;;;;20.80;7.68;;;13.00;99.90;;;;;;4992493;28;20118;-73
2023/05/02 06:27:54;;;;;;;15.95;7.90;;;13.10;99.90;;;;;;4972179;28;20050;-74
2023/05/02 06:30:19;;;;;;;26.67;10.85;;;13.10;99.90;;;;;;4989983;28;20014;-73
2023/05/02 06:32:45;;;;;;;20.02;9.80;;;13.00;99.90;;;;;;4974788;28;20035;-72
2023/05/02 06:35:11;;;;;;;16.35;7.85;;;12.90;99.90;;;;;;5001350;28;20393;-76
2023/05/02 06:37:37;;;;;;;19.40;8.88;;;12.90;99.90;;;;;;4976191;28;20035;-74
2023/05/02 06:40:04;;;;;;;29.35;13.57;;;13.10;99.90;;;;;;4990474;28;20030;-76
2023/05/02 06:42:29;;;;;;;16.55;8.05;;;12.80;99.90;;;;;;4978409;28;20113;-76
2023/05/02 06:44:55;;;;;;;18.83;7.65;;;12.80;99.90;;;;;;4987811;28;20114;-74
2023/05/02 06:47:23;;;;;;;20.60;9.35;;;13.00;99.90;;;;;;4962726;28;20035;-74
2023/05/02 06:49:52;;;;;;;29.88;10.13;;;13.10;99.90;;;;;;4985902;28;20105;-75
2023/05/02 06:52:18;;;;;;;22.48;9.68;;;13.20;99.90;;;;;;4987751;28;20494;-77
2023/05/02 06:54:44;;;;;;;16.08;7.63;;;13.10;99.90;;;;;;4991237;28;20029;-77
2023/05/02 06:57:10;;;;;;;19.13;9.80;;;13.00;99.90;;;;;;4989679;28;20443;-76
2023/05/02 06:59:36;;;;;;;22.60;9.77;;;13.10;99.90;;;;;;4987950;28;20096;-76
2023/05/02 07:02:02;;;;;;;20.23;9.35;;;13.10;99.90;;;;;;4991939;28;20331;-76
2023/05/02 07:04:28;;;;;;;25.25;10.10;;;13.20;99.90;;;;;;4986739;28;20113;-77
2023/05/02 07:06:53;;;;;;;31.13;11.20;;;13.50;99.90;;;;;;4994122;28;20027;-76
2023/05/02 07:09:19;;;;;;;20.88;10.48;;;13.70;99.90;;;;;;4984312;28;20026;-76
2023/05/02 07:11:45;;;;;;;26.00;10.23;;;13.70;99.90;;;;;;4983785;28;20518;-76
2023/05/02 07:14:11;;;;;;;24.35;10.35;;;13.80;99.90;;;;;;4981906;28;20548;-76
2023/05/02 07:16:36;;;;;;;22.33;10.85;;;13.70;99.90;;;;;;4997459;28;20054;-76
2023/05/02 07:19:05;;;;;;;27.05;12.50;;;13.80;99.90;;;;;;4979438;28;20034;-76
2023/05/02 07:21:31;;;;;;;28.00;11.88;;;14.00;99.90;;;;;;4995353;28;20027;-76
2023/05/02 07:23:57;;;;;;;26.20;11.93;;;14.10;99.90;;;;;;4979376;28;20037;-77
2023/05/02 07:26:24;;;;;;;30.83;13.57;;;13.90;99.90;;;;;;4997389;28;20034;-76
2023/05/02 07:28:49;;;;;;;25.90;11.35;;;13.70;99.90;;;;;;4980382;28;20390;-76
2023/05/02 07:31:15;;;;;;;22.17;11.57;;;13.90;99.90;;;;;;4996979;28;20034;-76
2023/05/02 07:33:41;;;;;;;25.95;10.55;;;14.10;99.90;;;;;;4980311;28;20030;-76
2023/05/02 07:36:06;;;;;;;27.77;11.85;;;14.30;99.90;;;;;;4997277;28;20105;-77
2023/05/02 07:38:32;;;;;;;28.00;11.88;;;14.60;99.90;;;;;;4980730;28;20034;-77
2023/05/02 07:40:59;;;;;;;24.98;10.85;;;14.70;99.90;;;;;;4996904;28;20061;-77
2023/05/02 07:43:25;;;;;;;24.33;11.63;;;14.80;99.90;;;;;;4980322;28;20034;-77
2023/05/02 07:45:51;;;;;;;25.40;11.27;;;14.70;99.90;;;;;;4997070;28;20026;-77
2023/05/02 07:48:17;;;;;;;20.15;10.38;;;15.10;99.90;;;;;;4979074;28;20042;-77
2023/05/02 07:50:43;;;;;;;23.33;10.15;;;15.20;99.90;;;;;;4984279;28;20031;-75
2023/05/02 07:53:09;;;;;;;22.08;10.70;;;15.20;99.90;;;;;;4975095;28;20026;-77
2023/05/02 07:55:35;;;;;;;24.75;9.75;;;15.20;99.90;;;;;;4997002;28;20026;-74
2023/05/02 07:58:02;;;;;;;23.27;9.02;;;15.40;99.90;;;;;;4980625;28;20051;-73
2023/05/02 08:00:27;;;;;;;29.30;11.40;;;15.50;99.90;;;;;;4996548;28;20089;-73
2023/05/02 08:02:53;;;;;;;24.13;10.93;;;15.60;99.90;;;;;;4976707;28;20039;-73
2023/05/02 08:05:19;;;;;;;23.05;10.45;;;15.70;99.90;;;;;;4993297;28;20113;-73
2023/05/02 08:07:45;;;;;;;18.42;9.45;;;15.70;99.90;;;;;;4960317;28;20039;-73
2023/05/02 08:10:11;;;;;;;20.52;9.85;;;15.80;99.90;;;;;;4984811;28;20105;-74
2023/05/02 08:12:40;;;;;;;21.55;9.88;;;15.60;99.90;;;;;;4969633;28;20107;-72
2023/05/02 08:15:10;;;;;;;28.35;10.45;;;15.50;99.90;;;;;;4993198;28;20031;-74
2023/05/02 08:17:36;;;;;;;27.60;11.18;;;15.60;99.90;;;;;;4978817;28;20043;-73
2023/05/02 08:20:02;;;;;;;31.02;11.35;;;15.60;99.90;;;;;;4989764;28;20030;-73
2023/05/02 08:22:27;;;;;;;28.85;10.90;;;15.60;99.90;;;;;;4981182;28;20093;-73
2023/05/02 08:24:53;;;;;;;27.70;12.45;;;15.60;99.90;;;;;;4989533;28;20042;-74
2023/05/02 08:27:19;;;;;;;21.27;10.27;;;15.70;99.90;;;;;;4983109;28;20146;-74
2023/05/02 08:29:44;;;;;;;23.30;10.88;;;15.80;99.90;;;;;;4987451;28;20478;-72
2023/05/02 08:32:10;;;;;;;24.88;10.63;;;15.70;99.90;;;;;;4985821;28;20086;-72
2023/05/02 08:34:36;;;;;;;24.15;9.82;;;15.70;99.90;;;;;;4983601;28;20375;-72
2023/05/02 08:37:11;;;;;;;29.67;11.63;;;15.80;99.90;;;;;;4986534;28;20038;-72
2023/05/02 08:39:36;;;;;;;26.52;9.70;;;15.90;99.90;;;;;;4985460;28;20109;-72
2023/05/02 08:42:06;;;;;;;23.45;9.85;;;15.90;99.90;;;;;;4987595;28;20125;-72
2023/05/02 08:44:32;;;;;;;24.65;10.32;;;16.00;99.90;;;;;;4982532;28;20117;-72
2023/05/02 08:46:59;;;;;;;22.90;9.85;;;16.00;99.90;;;;;;4988635;28;20448;-72
2023/05/02 08:49:28;;;;;;;22.77;9.63;;;16.00;99.90;;;;;;4980431;28;20026;-72
2023/05/02 08:51:55;;;;;;;20.38;9.60;;;15.80;99.90;;;;;;4981446;28;20041;-72
2023/05/02 08:54:24;;;;;;;21.63;9.65;;;15.90;99.90;;;;;;4980434;28;20069;-72
2023/05/02 08:56:53;;;;;;;18.75;8.75;;;16.00;99.90;;;;;;4989216;28;20363;-71
2023/05/02 08:59:19;;;;;;;15.75;7.07;;;16.10;99.90;;;;;;4980135;28;20033;-71
2023/05/02 09:01:54;;;;;;;18.98;8.50;;;16.20;99.90;;;;;;4991474;28;20030;-72
2023/05/02 09:04:23;;;;;;;20.23;9.23;;;16.10;99.90;;;;;;4978707;28;20109;-72
2023/05/02 09:06:49;;;;;;;19.85;8.35;;;16.10;99.90;;;;;;4989382;28;20049;-71
2023/05/02 09:09:15;;;;;;;20.60;9.70;;;16.00;99.90;;;;;;4977399;28;20026;-72
2023/05/02 09:11:45;;;;;;;18.90;8.48;;;15.90;99.90;;;;;;4991632;28;20025;-72
2023/05/02 09:14:16;;;;;;;23.60;9.60;;;15.90;99.90;;;;;;4974951;28;20686;-72
2023/05/02 09:16:42;;;;;;;19.77;8.20;;;16.00;99.90;;;;;;4990506;28;20032;-70
2023/05/02 09:19:08;;;;;;;19.23;8.35;;;16.20;99.90;;;;;;4976328;28;20460;-75
2023/05/02 09:21:39;;;;;;;19.85;7.13;;;16.30;99.90;;;;;;4989064;28;20026;-73
2023/05/02 09:24:31;;;;;;;18.60;7.47;;;16.30;99.90;;;;;;4976010;28;20029;-72
2023/05/02 09:26:59;;;;;;;20.52;8.23;;;16.40;99.90;;;;;;4986919;28;20050;-76
2023/05/02 09:29:29;;;;;;;23.95;9.63;;;16.40;99.90;;;;;;4979934;28;20088;-76
2023/05/02 09:31:55;;;;;;;20.95;8.70;;;16.40;99.90;;;;;;4988046;28;20089;-74
2023/05/02 09:34:21;;;;;;;20.73;9.45;;;16.50;99.90;;;;;;4978577;28;20022;-73
2023/05/02 09:36:50;;;;;;;22.48;9.15;;;16.60;99.90;;;;;;4989297;28;20027;-73
2023/05/02 09:39:20;;;;;;;25.45;8.93;;;16.70;99.90;;;;;;4993265;28;20030;-73
2023/05/02 09:41:47;;;;;;;27.88;10.13;;;16.70;99.90;;;;;;4990381;28;20038;-73
2023/05/02 09:44:19;;;;;;;21.98;9.95;;;16.50;99.90;;;;;;4976098;28;20502;-72
2023/05/02 09:46:51;;;;;;;22.38;9.65;;;16.40;99.90;;;;;;4974010;28;20034;-74
2023/05/02 09:49:18;;;;;;;22.80;10.38;;;15.90;99.90;;;;;;4977336;28;20122;-74
2023/05/02 09:51:46;;;;;;;25.60;9.48;;;15.70;99.90;;;;;;4979153;28;20121;-74
2023/05/02 09:54:37;;;;;;;20.48;8.27;;;15.60;99.90;;;;;;4976658;28;20037;-75
2023/05/02 09:57:05;;;;;;;21.02;9.23;;;15.50;99.90;;;;;;4985913;28;20550;-76
2023/05/02 09:59:31;;;;;;;18.90;8.75;;;15.50;99.90;;;;;;4980991;28;20506;-73
2023/05/02 10:02:00;;;;;;;22.45;9.30;;;15.50;99.90;;;;;;4981763;28;20037;-74
2023/05/02 10:04:29;;;;;;;16.80;8.50;;;15.70;99.90;;;;;;4979187;28;20437;-74
2023/05/02 10:06:56;;;;;;;20.77;8.10;;;15.50;99.90;;;;;;4973109;28;20825;-74
2023/05/02 10:09:22;;;;;;;23.15;7.57;;;15.20;99.90;;;;;;4977880;28;20078;-73
2023/05/02 10:11:53;;;;;;;20.85;8.50;;;15.10;99.90;;;;;;4975775;28;20372;-74
2023/05/02 10:14:21;;;;;;;21.15;7.95;;;14.90;99.90;;;;;;4978480;28;20454;-73
2023/05/02 10:17:00;;;;;;;20.02;8.73;;;14.80;99.90;;;;;;4988297;28;20394;-74
2023/05/02 10:19:36;;;;;;;19.45;8.00;;;14.90;99.90;;;;;;4980352;28;20103;-73
2023/05/02 10:22:03;;;;;;;23.98;8.38;;;14.90;99.90;;;;;;4984380;28;20455;-73
2023/05/02 10:24:32;;;;;;;19.17;7.95;;;14.90;99.90;;;;;;4978907;28;20401;-74
2023/05/02 10:26:58;;;;;;;19.63;8.02;;;15.00;99.90;;;;;;4985348;28;20041;-73
2023/05/02 10:29:28;;;;;;;18.98;7.40;;;15.10;99.90;;;;;;4978162;28;20034;-73
2023/05/02 10:31:57;;;;;;;20.30;7.13;;;15.60;99.90;;;;;;4986653;28;20444;-74
2023/05/02 10:34:23;;;;;;;14.57;6.72;;;16.00;99.90;;;;;;4977669;28;20058;-74
2023/05/02 10:36:49;;;;;;;13.63;6.18;;;16.40;99.90;;;;;;4987328;28;20120;-74
2023/05/02 10:39:15;;;;;;;14.20;6.22;;;16.70;99.90;;;;;;4977200;28;20030;-73
2023/05/02 10:41:41;;;;;;;12.88;5.45;;;16.90;99.90;;;;;;4988970;28;20026;-74
2023/05/02 10:44:07;;;;;;;8.68;3.80;;;17.10;99.90;;;;;;4974585;28;20042;-74
2023/05/02 10:46:36;;;;;;;12.02;4.57;;;17.40;99.90;;;;;;4989618;28;20037;-73
2023/05/02 10:49:07;;;;;;;11.98;4.65;;;17.50;99.90;;;;;;4974643;28;20053;-74
2023/05/02 10:51:35;;;;;;;11.48;4.95;;;17.80;99.90;;;;;;4985156;28;20034;-74
2023/05/02 10:54:16;;;;;;;13.85;5.20;;;17.80;99.90;;;;;;4971239;28;20041;-74
2023/05/02 10:57:02;;;;;;;7.93;4.28;;;17.90;99.90;;;;;;4988888;28;20081;-74
2023/05/02 10:59:32;;;;;;;11.40;4.63;;;18.00;99.90;;;;;;4980676;28;20037;-74
2023/05/02 11:01:58;;;;;;;9.38;3.17;;;18.40;99.90;;;;;;4987759;28;20041;-75
2023/05/02 11:04:24;;;;;;;8.27;3.35;;;18.60;99.60;;;;;;4984969;28;20577;-75
2023/05/02 11:06:55;;;;;;;10.15;3.85;;;19.00;98.70;;;;;;4988051;28;20030;-74
2023/05/02 11:09:21;;;;;;;6.40;3.47;;;19.10;97.80;;;;;;4978588;28;20121;-74
2023/05/02 11:11:49;;;;;;;13.85;3.90;;;18.70;97.90;;;;;;4976658;28;20453;-75
2023/05/02 11:14:38;;;;;;;9.32;3.75;;;18.70;98.80;;;;;;4975058;28;20026;-74
2023/05/02 11:17:03;;;;;;;6.75;3.10;;;18.40;98.90;;;;;;4980944;28;20046;-74
2023/05/02 11:19:40;;;;;;;10.27;4.70;;;18.10;98.90;;;;;;4979784;28;20041;-75
2023/05/02 11:22:19;;;;;;;9.73;3.25;;;18.20;99.80;;;;;;4983536;28;20164;-76
2023/05/02 11:24:47;;;;;;;11.75;3.85;;;18.30;99.90;;;;;;4984466;28;20030;-74
2023/05/02 11:27:28;;;;;;;8.63;4.30;;;18.60;99.20;;;;;;4980992;28;20534;-75
2023/05/02 11:29:55;;;;;;;;;;;18.10;99.10;;;;;;4987574;28;20113;-75
2023/05/02 11:32:21;;;;;;;7.22;3.03;;;17.90;99.20;;;;;;4978734;28;19921;-76
2023/05/02 11:34:51;;;;;;;8.77;3.08;;;18.20;99.50;;;;;;4983390;28;20033;-76
2023/05/02 11:37:19;;;;;;;8.75;3.58;;;18.40;98.80;;;;;;4981503;28;20035;-76
2023/05/02 11:39:46;;;;;;;8.02;3.47;;;18.20;99.00;;;;;;4987111;28;20026;-76
2023/05/02 11:42:31;;;;;;;9.02;3.72;;;18.30;99.20;;;;;;4968606;28;20031;-76
2023/05/02 11:45:00;;;;;;;9.10;2.58;;;18.60;98.70;;;;;;4990124;28;20536;-75
2023/05/02 11:47:28;;;;;;;8.02;3.95;;;19.00;97.90;;;;;;4982125;28;20774;-76
2023/05/02 11:49:55;;;;;;;7.43;3.30;;;19.40;97.50;;;;;;4987394;28;20486;-75
2023/05/02 11:52:23;;;;;;;8.02;2.95;;;20.00;96.20;;;;;;4983832;28;20038;-76
2023/05/02 11:54:54;;;;;;;5.13;2.58;;;19.80;95.50;;;;;;4989094;28;20556;-76
2023/05/02 11:57:20;;;;;;;;;;;19.70;95.70;;;;;;4979745;28;20031;-76
2023/05/02 11:59:56;;;;;;;8.88;3.60;;;20.00;95.20;;;;;;4986919;28;20361;-76
2023/05/02 12:02:39;;;;;;;11.80;3.53;;;19.90;95.50;;;;;;4983168;28;20261;-76
2023/05/02 12:05:10;;;;;;;11.15;3.25;;;19.70;96.10;;;;;;4993290;28;20544;-75
2023/05/02 12:07:45;;;;;;;8.27;3.33;;;19.60;96.00;;;;;;4979622;28;20031;-75
2023/05/02 12:10:12;;;;;;;5.82;2.85;;;19.10;96.40;;;;;;4977006;28;20034;-75
2023/05/02 12:12:39;;;;;;;3.55;1.98;;;19.10;96.50;;;;;;4969928;28;20027;-75
2023/05/02 12:15:08;;;;;;;5.53;2.00;;;19.40;96.00;;;;;;4979530;28;20473;-75
2023/05/02 12:17:39;;;;;;;8.98;2.40;;;19.80;95.50;;;;;;4978308;28;20078;-75
2023/05/02 12:20:15;;;;;;;6.53;2.55;;;19.90;94.70;;;;;;4989768;28;20022;-75
2023/05/02 12:22:41;;;;;;;5.55;2.15;;;19.90;94.70;;;;;;4977680;28;20034;-75
2023/05/02 12:25:07;;;;;;;6.10;2.45;;;19.70;94.80;;;;;;4977252;28;20022;-76
2023/05/02 12:27:34;;;;;;;5.10;2.50;;;19.70;94.90;;;;;;4978034;28;20038;-76
2023/05/02 12:30:00;;;;;;;7.22;2.20;;;19.70;94.90;;;;;;4990032;28;20169;-75
2023/05/02 12:32:32;;;;;;;5.32;2.20;;;19.40;94.90;;;;;;4980183;28;20027;-76
2023/05/02 12:34:58;;;;;;;6.47;2.63;;;19.20;95.00;;;;;;4990606;28;20170;-76
2023/05/02 12:37:26;;;;;;;5.25;2.85;;;18.90;95.10;;;;;;4981407;28;20023;-76
2023/05/02 12:39:53;;;;;;;4.68;1.90;;;18.90;95.40;;;;;;4987859;28;20426;-76
2023/05/02 12:42:22;;;;;;;7.05;2.53;;;18.90;95.20;;;;;;4981868;28;20027;-75
2023/05/02 12:44:52;;;;;;;5.15;2.58;;;18.60;95.20;;;;;;4986509;28;20034;-75
2023/05/02 12:47:21;;;;;;;4.35;1.58;;;19.00;95.30;;;;;;4965917;28;20118;-75
2023/05/02 12:49:59;;;;;;;8.40;2.38;;;19.20;94.70;;;;;;4982079;28;20043;-76
2023/05/02 12:52:58;;;;;;;6.75;2.40;;;19.40;95.10;;;;;;4981152;28;20034;-76